Portage Des Sioux, MO

10:59 AM CDT on July 25, 2016 (GMT -0500)
Saint Charles County Smartt | | Change Station

Elev 436 ft 38.93 °N, 90.43 °W | Updated 5 minutes ago

Scattered Clouds
Scattered Clouds
80 °F
Feels Like 84 °F
N
7
Wind Variable Wind from WNW

Today
High -- | Low -- °F
--% Chance of Precip.
Yesterday
High -- | Low -- °F
Precip. -- in
Pressure 30.02 in
Visibility 10.0 miles
Clouds Scattered Clouds 2300 ft
Heat Index 84 °F
Dew Point 74 °F
Humidity 81%
Rainfall 0.69 in
Snow Depth Not available.
5:57 AM 8:18 PM
Waning Gibbous, 65% visible
METAR KSET 251554Z AUTO 29006KT 10SM SCT023 27/23 A3004 RMK AO2 SLP165 T02670233
Pressure 30.02 in
Visibility 10.0 miles
Clouds Scattered Clouds 2300 ft
Heat Index 84 °F
Dew Point 74 °F
Humidity 81%
Rainfall 0.69 in
Snow Depth Not available.
5:57 AM 8:18 PM
Waning Gibbous, 65% visible
METAR KSET 251554Z AUTO 29006KT 10SM SCT023 27/23 A3004 RMK AO2 SLP165 T02670233

10-Day Weather Forecast

Almanac

Astronomy

Jul. 25, 2016 Rise Set
Actual Time
Civil Twilight
Nautical Twilight
Astronomical Twilight
Moon
Length of Visible Light
Length of Day
Tomorrow will be .
, % of the Moon is Illuminated

Today's Extremes

State Highs State Lows

Community

WunderPhotos

Upload Photos

1,927,329 photos uploaded!

WunderBlog® & News

Nearby

Air Quality

  Air Quality AQ Index Pollutant
Not available.

Snow Depth

Station Depth Elevation

Earthquake Activity

City Distance Mag. Time & Date
Minimum magnitude displayed is 2.5.

Coastal Water Temperatures

Place Temperature

Stations

Nearby Weather Stations

Station Location Temp. Windchill Dew Point Humidity Wind Precip. Elev Updated Type
                   

Watches & Warnings

There are currently no watches in effect.